createdAt,value
2022-10-02T00:02:37.075Z,16.10
2022-10-02T00:05:10.435Z,16.10
2022-10-02T00:07:45.338Z,16.10
2022-10-02T00:10:22.790Z,16.10
2022-10-02T00:12:56.875Z,16.10
2022-10-02T00:15:28.667Z,16.10
2022-10-02T00:18:15.286Z,16.10
2022-10-02T00:21:06.227Z,16.10
2022-10-02T00:23:41.328Z,16.10
2022-10-02T00:26:20.549Z,16.10
2022-10-02T00:29:14.472Z,16.10
2022-10-02T00:32:02.417Z,16.10
2022-10-02T00:35:03.357Z,16.10
2022-10-02T00:38:00.358Z,16.10
2022-10-02T00:40:36.773Z,16.10
2022-10-02T00:43:11.046Z,16.10
2022-10-02T00:45:48.638Z,16.10
2022-10-02T00:48:44.375Z,16.10
2022-10-02T00:51:32.024Z,16.10
2022-10-02T00:54:13.712Z,16.10
2022-10-02T00:57:12.516Z,16.10
2022-10-02T00:59:53.974Z,16.10
2022-10-02T01:02:26.786Z,16.10
2022-10-02T01:04:54.385Z,16.10
2022-10-02T01:07:21.633Z,16.10
2022-10-02T01:09:48.681Z,16.10
2022-10-02T01:12:15.594Z,16.10
2022-10-02T01:14:42.351Z,16.20
2022-10-02T01:17:31.722Z,16.20
2022-10-02T01:20:01.316Z,16.20
2022-10-02T01:22:55.710Z,16.20
2022-10-02T01:25:22.410Z,16.20
2022-10-02T01:27:50.801Z,16.20
2022-10-02T01:30:19.555Z,16.20
2022-10-02T01:33:01.836Z,16.20
2022-10-02T01:35:31.861Z,16.20
2022-10-02T01:38:01.965Z,16.20
2022-10-02T01:40:37.196Z,16.30
2022-10-02T01:43:28.587Z,16.30
2022-10-02T01:46:24.332Z,16.30
2022-10-02T01:48:59.187Z,16.30
2022-10-02T01:52:01.309Z,16.40
2022-10-02T01:54:54.245Z,16.30
2022-10-02T01:57:54.199Z,16.40
2022-10-02T02:00:24.917Z,16.40
2022-10-02T02:03:12.657Z,16.40
2022-10-02T02:06:01.149Z,16.40
2022-10-02T02:08:51.062Z,16.40
2022-10-02T02:11:22.529Z,16.40
2022-10-02T02:14:27.296Z,16.40
2022-10-02T02:17:06.115Z,16.50
2022-10-02T02:19:44.942Z,16.50
2022-10-02T02:22:19.769Z,16.50
2022-10-02T02:24:57.890Z,16.50
2022-10-02T02:27:33.691Z,16.50
2022-10-02T02:30:19.606Z,16.50
2022-10-02T02:32:54.777Z,16.50
2022-10-02T02:35:35.950Z,16.60
2022-10-02T02:38:18.985Z,16.50
2022-10-02T02:40:47.283Z,16.50
2022-10-02T02:43:24.197Z,16.60
2022-10-02T02:46:05.262Z,16.50
2022-10-02T02:48:46.843Z,16.50
2022-10-02T02:51:15.732Z,16.50
2022-10-02T02:53:51.519Z,16.50
2022-10-02T02:56:20.057Z,16.50
2022-10-02T02:58:49.112Z,16.50
2022-10-02T03:01:15.915Z,16.50
2022-10-02T03:03:42.720Z,16.50
2022-10-02T03:06:21.663Z,16.50
2022-10-02T03:08:51.524Z,16.50
2022-10-02T03:11:39.003Z,16.50
2022-10-02T03:14:09.675Z,16.50
2022-10-02T03:17:13.817Z,16.50
2022-10-02T03:19:51.280Z,16.50
2022-10-02T03:23:00.813Z,16.50
2022-10-02T03:25:52.554Z,16.50
2022-10-02T03:28:50.478Z,16.40
2022-10-02T03:31:14.391Z,16.40
2022-10-02T03:33:41.906Z,16.40
2022-10-02T03:36:11.594Z,16.40
2022-10-02T03:38:39.043Z,16.40
2022-10-02T03:41:05.871Z,16.40
2022-10-02T03:43:32.535Z,16.30
2022-10-02T03:45:59.209Z,16.30
2022-10-02T03:48:25.874Z,16.30
2022-10-02T03:50:52.898Z,16.30
2022-10-02T03:53:29.283Z,16.30
2022-10-02T03:56:03.990Z,16.30
2022-10-02T03:58:32.008Z,16.30
2022-10-02T04:01:12.046Z,16.30
2022-10-02T04:03:46.398Z,16.30
2022-10-02T04:06:18.992Z,16.40
2022-10-02T04:08:51.352Z,16.40
2022-10-02T04:11:41.349Z,16.40
2022-10-02T04:14:28.133Z,16.40
2022-10-02T04:17:04.156Z,16.40
2022-10-02T04:19:41.788Z,16.40
2022-10-02T04:22:38.095Z,16.40
2022-10-02T04:25:39.124Z,16.50
2022-10-02T04:28:11.675Z,16.50
2022-10-02T04:30:38.355Z,16.50
2022-10-02T04:33:18.493Z,16.50
2022-10-02T04:36:03.203Z,16.50
2022-10-02T04:38:41.901Z,16.50
2022-10-02T04:41:36.492Z,16.50
2022-10-02T04:44:17.062Z,16.50
2022-10-02T04:47:02.230Z,16.50
2022-10-02T04:49:37.651Z,16.50
2022-10-02T04:52:07.093Z,16.40
2022-10-02T04:54:52.302Z,16.40
2022-10-02T04:57:44.808Z,16.40
2022-10-02T05:00:13.331Z,16.50
2022-10-02T05:02:58.757Z,16.40
2022-10-02T05:05:49.461Z,16.40
2022-10-02T05:08:31.014Z,16.40
2022-10-02T05:11:14.891Z,16.40
2022-10-02T05:13:41.533Z,16.40
2022-10-02T05:16:46.858Z,16.40
2022-10-02T05:19:27.460Z,16.40
2022-10-02T05:22:23.941Z,16.40
2022-10-02T05:25:14.010Z,16.40
2022-10-02T05:27:55.754Z,16.40
2022-10-02T05:30:22.426Z,16.40
2022-10-02T05:32:55.350Z,16.40
2022-10-02T05:35:56.228Z,16.40
2022-10-02T05:38:54.662Z,16.40
2022-10-02T05:41:33.248Z,16.40
2022-10-02T05:44:20.141Z,16.40
2022-10-02T05:47:05.394Z,16.40
2022-10-02T05:49:44.685Z,16.50
2022-10-02T05:52:13.502Z,16.50
2022-10-02T05:54:47.049Z,16.50
2022-10-02T05:57:41.300Z,16.50
2022-10-02T06:00:39.165Z,16.60
2022-10-02T06:03:26.397Z,16.60
2022-10-02T06:06:18.442Z,16.60
2022-10-02T06:09:00.590Z,16.70
2022-10-02T06:11:49.670Z,16.70
2022-10-02T06:14:27.471Z,16.70
2022-10-02T06:17:05.313Z,16.70
2022-10-02T06:19:44.672Z,16.70
2022-10-02T06:22:19.796Z,16.80
2022-10-02T06:24:58.511Z,16.80
2022-10-02T06:27:47.165Z,16.80
2022-10-02T06:30:18.632Z,16.90
2022-10-02T06:32:58.418Z,16.90
2022-10-02T06:36:04.599Z,17.00
2022-10-02T06:39:01.162Z,17.00
2022-10-02T06:41:59.977Z,17.10
2022-10-02T06:44:32.578Z,17.10
2022-10-02T06:47:26.951Z,17.10
2022-10-02T06:50:20.846Z,17.20
2022-10-02T06:52:58.008Z,17.20
2022-10-02T06:55:31.029Z,17.20
2022-10-02T06:58:14.556Z,17.30
2022-10-02T07:00:49.732Z,17.30
2022-10-02T07:03:24.280Z,17.30
2022-10-02T07:06:17.835Z,17.30
2022-10-02T07:09:00.988Z,17.40
2022-10-02T07:11:46.163Z,17.50
2022-10-02T07:14:27.999Z,17.50
2022-10-02T07:17:18.292Z,17.60
2022-10-02T07:20:02.438Z,17.60
2022-10-02T07:23:01.759Z,17.70
2022-10-02T07:26:02.415Z,17.70
2022-10-02T07:28:44.072Z,17.80
2022-10-02T07:31:32.017Z,17.80
2022-10-02T07:34:16.390Z,17.80
2022-10-02T07:37:05.817Z,17.90
2022-10-02T07:39:45.810Z,18.00
2022-10-02T07:42:36.615Z,18.10
2022-10-02T07:45:09.164Z,18.20
2022-10-02T07:48:18.122Z,18.30
2022-10-02T07:51:33.054Z,18.40
2022-10-02T07:54:08.991Z,18.50
2022-10-02T07:56:36.753Z,18.70
2022-10-02T07:59:11.984Z,18.70
2022-10-02T08:01:43.781Z,18.80
2022-10-02T08:04:17.235Z,18.80
2022-10-02T08:06:46.958Z,18.80
2022-10-02T08:09:33.535Z,18.80
2022-10-02T08:12:09.175Z,18.90
2022-10-02T08:14:45.278Z,18.90
2022-10-02T08:17:43.095Z,19.00
2022-10-02T08:20:25.354Z,19.10
2022-10-02T08:23:21.591Z,19.10
2022-10-02T08:25:59.306Z,19.20
2022-10-02T08:28:50.590Z,19.30
2022-10-02T08:31:17.295Z,19.40
2022-10-02T08:33:44.065Z,19.50
2022-10-02T08:36:28.593Z,19.70
2022-10-02T08:39:33.369Z,20.00
2022-10-02T08:42:09.094Z,20.30
2022-10-02T08:45:02.381Z,20.60
2022-10-02T08:48:02.756Z,20.90
2022-10-02T08:51:15.180Z,21.20
2022-10-02T08:54:18.444Z,21.50
2022-10-02T08:57:11.512Z,21.80
2022-10-02T08:59:50.552Z,21.90
2022-10-02T09:02:36.216Z,22.00
2022-10-02T09:05:14.566Z,22.10
2022-10-02T09:07:56.814Z,22.20
2022-10-02T09:10:38.487Z,22.30
2022-10-02T09:13:24.259Z,22.30
2022-10-02T09:16:09.159Z,22.40
2022-10-02T09:19:00.547Z,22.50
2022-10-02T09:21:42.704Z,22.60
2022-10-02T09:24:28.192Z,22.60
2022-10-02T09:27:41.040Z,22.60
2022-10-02T09:30:20.149Z,22.60
2022-10-02T09:32:55.250Z,22.60
2022-10-02T09:35:25.806Z,22.60
2022-10-02T09:38:07.585Z,22.60
2022-10-02T09:41:31.725Z,22.60
2022-10-02T09:44:10.116Z,22.60
2022-10-02T09:47:02.684Z,22.60
2022-10-02T09:49:58.214Z,22.60
2022-10-02T09:52:55.607Z,22.50
2022-10-02T09:55:53.647Z,22.40
2022-10-02T09:58:43.740Z,22.40
2022-10-02T10:01:29.886Z,22.40
2022-10-02T10:04:18.310Z,22.40
2022-10-02T10:07:16.256Z,22.50
2022-10-02T10:09:48.120Z,22.70
2022-10-02T10:12:31.759Z,22.90
2022-10-02T10:15:40.898Z,23.00
2022-10-02T10:18:42.702Z,23.20
2022-10-02T10:21:34.291Z,23.30
2022-10-02T10:24:15.609Z,23.30
2022-10-02T10:27:00.315Z,23.30
2022-10-02T10:29:31.759Z,23.30
2022-10-02T10:32:22.635Z,23.20
2022-10-02T10:34:49.265Z,23.10
2022-10-02T10:37:59.891Z,23.00
2022-10-02T10:40:42.583Z,23.00
2022-10-02T10:43:21.149Z,22.90
2022-10-02T10:46:06.481Z,22.80
2022-10-02T10:49:00.486Z,22.80
2022-10-02T10:51:48.420Z,22.70
2022-10-02T10:54:33.579Z,22.70
2022-10-02T10:57:22.758Z,22.60
2022-10-02T10:59:55.137Z,22.60
2022-10-02T11:02:40.588Z,22.50
2022-10-02T11:05:22.195Z,22.50
2022-10-02T11:08:26.137Z,22.50
2022-10-02T11:10:55.798Z,22.40
2022-10-02T11:13:23.648Z,22.40
2022-10-02T11:15:59.738Z,22.40
2022-10-02T11:19:00.052Z,22.30
2022-10-02T11:21:47.922Z,22.30
2022-10-02T11:24:29.795Z,22.30
2022-10-02T11:27:08.651Z,22.20
2022-10-02T11:30:32.876Z,22.20
2022-10-02T11:33:23.812Z,22.20
2022-10-02T11:36:09.573Z,22.20
2022-10-02T11:39:14.614Z,22.20
2022-10-02T11:41:50.059Z,22.20
2022-10-02T11:44:35.439Z,22.10
2022-10-02T11:47:20.896Z,22.10
2022-10-02T11:50:29.395Z,22.10
2022-10-02T11:53:07.032Z,22.10
2022-10-02T11:55:54.721Z,22.10
2022-10-02T11:58:44.036Z,22.10
2022-10-02T12:01:34.738Z,22.10
2022-10-02T12:04:40.720Z,22.00
2022-10-02T12:07:44.498Z,22.00
2022-10-02T12:10:33.206Z,22.00
2022-10-02T12:13:02.565Z,21.90
2022-10-02T12:15:38.031Z,21.90
2022-10-02T12:18:25.894Z,21.80
2022-10-02T12:21:28.862Z,21.70
2022-10-02T12:24:37.514Z,21.60
2022-10-02T12:27:29.197Z,21.50
2022-10-02T12:30:00.357Z,21.50
2022-10-02T12:32:49.622Z,21.40
2022-10-02T12:35:37.965Z,21.40
2022-10-02T12:38:22.878Z,21.40
2022-10-02T12:40:58.385Z,21.30
2022-10-02T12:43:50.498Z,21.30
2022-10-02T12:46:39.534Z,21.30
2022-10-02T12:49:13.018Z,21.30
2022-10-02T12:52:13.594Z,21.30
2022-10-02T12:55:06.814Z,21.30
2022-10-02T12:57:58.791Z,21.30
2022-10-02T13:00:39.338Z,21.30
2022-10-02T13:03:35.726Z,21.40
2022-10-02T13:06:11.155Z,21.30
2022-10-02T13:08:41.260Z,21.30
2022-10-02T13:11:36.206Z,21.20
2022-10-02T13:14:17.868Z,21.20
2022-10-02T13:17:10.507Z,21.20
2022-10-02T13:19:58.390Z,21.20
2022-10-02T13:22:31.254Z,21.10
2022-10-02T13:25:33.038Z,21.10
2022-10-02T13:28:33.757Z,21.10
2022-10-02T13:31:11.707Z,21.10
2022-10-02T13:33:52.995Z,21.10
2022-10-02T13:36:37.155Z,21.10
2022-10-02T13:39:22.564Z,21.10
2022-10-02T13:41:51.926Z,21.00
2022-10-02T13:44:33.867Z,21.00
2022-10-02T13:47:19.824Z,21.00
2022-10-02T13:49:53.960Z,20.90
2022-10-02T13:52:38.952Z,20.90
2022-10-02T13:55:31.873Z,20.80
2022-10-02T13:58:19.889Z,20.70
2022-10-02T14:01:05.059Z,20.70
2022-10-02T14:03:46.164Z,20.60
2022-10-02T14:06:29.604Z,20.60
2022-10-02T14:09:14.759Z,20.50
2022-10-02T14:12:20.517Z,20.50
2022-10-02T14:14:49.939Z,20.40
2022-10-02T14:17:38.404Z,20.40
2022-10-02T14:20:26.236Z,20.40
2022-10-02T14:23:01.052Z,20.30
2022-10-02T14:25:42.336Z,20.30
2022-10-02T14:28:36.162Z,20.30
2022-10-02T14:31:20.661Z,20.30
2022-10-02T14:34:21.643Z,20.40
2022-10-02T14:37:16.687Z,20.40
2022-10-02T14:39:45.606Z,20.40
2022-10-02T14:42:41.447Z,20.40
2022-10-02T14:45:45.967Z,20.40
2022-10-02T14:48:38.050Z,20.40
2022-10-02T14:51:43.243Z,20.40
2022-10-02T14:54:18.692Z,20.40
2022-10-02T14:56:57.839Z,20.40
2022-10-02T14:59:40.265Z,20.40
2022-10-02T15:02:09.596Z,20.40
2022-10-02T15:05:07.487Z,20.40
2022-10-02T15:07:36.031Z,20.30
2022-10-02T15:10:02.740Z,20.30
2022-10-02T15:12:52.905Z,20.30
2022-10-02T15:15:31.908Z,20.30
2022-10-02T15:18:38.935Z,20.30
2022-10-02T15:21:29.784Z,20.30
2022-10-02T15:23:58.803Z,20.30
2022-10-02T15:26:50.270Z,20.20
2022-10-02T15:29:39.844Z,20.20
2022-10-02T15:32:25.895Z,20.20
2022-10-02T15:35:23.552Z,20.20
2022-10-02T15:38:09.120Z,20.20
2022-10-02T15:40:59.454Z,20.20
2022-10-02T15:43:46.371Z,20.20
2022-10-02T15:46:58.865Z,20.20
2022-10-02T15:49:48.224Z,20.20
2022-10-02T15:52:46.889Z,20.20
2022-10-02T15:55:30.070Z,20.10
2022-10-02T15:58:19.601Z,20.10
2022-10-02T16:01:01.224Z,20.00
2022-10-02T16:03:50.638Z,20.00
2022-10-02T16:06:50.604Z,20.00
2022-10-02T16:09:20.052Z,19.90
2022-10-02T16:12:05.210Z,19.90
2022-10-02T16:14:37.698Z,19.90
2022-10-02T16:17:23.899Z,19.80
2022-10-02T16:19:58.415Z,19.80
2022-10-02T16:22:45.488Z,19.80
2022-10-02T16:25:36.614Z,19.70
2022-10-02T16:28:09.870Z,19.70
2022-10-02T16:30:59.665Z,19.70
2022-10-02T16:33:40.460Z,19.60
2022-10-02T16:36:31.910Z,19.70
2022-10-02T16:39:10.737Z,19.60
2022-10-02T16:42:03.514Z,19.60
2022-10-02T16:44:49.188Z,19.60
2022-10-02T16:47:28.611Z,19.50
2022-10-02T16:50:19.615Z,19.50
2022-10-02T16:52:57.692Z,19.50
2022-10-02T16:55:27.075Z,19.50
2022-10-02T16:58:18.304Z,19.40
2022-10-02T17:01:01.965Z,19.40
2022-10-02T17:03:34.463Z,19.40
2022-10-02T17:06:26.551Z,19.30
2022-10-02T17:09:26.705Z,19.30
2022-10-02T17:12:07.830Z,19.30
2022-10-02T17:14:56.742Z,19.20
2022-10-02T17:17:50.945Z,19.20
2022-10-02T17:20:31.839Z,19.20
2022-10-02T17:23:20.274Z,19.10
2022-10-02T17:25:49.742Z,19.10
2022-10-02T17:28:32.135Z,18.90
2022-10-02T17:31:01.849Z,19.00
2022-10-02T17:34:00.817Z,18.90
2022-10-02T17:36:36.843Z,18.90
2022-10-02T17:39:19.043Z,18.80
2022-10-02T17:41:53.682Z,18.80
2022-10-02T17:44:58.821Z,18.70
2022-10-02T17:47:52.653Z,18.70
2022-10-02T17:50:24.915Z,18.70
2022-10-02T17:53:20.824Z,18.60
2022-10-02T17:56:28.858Z,18.60
2022-10-02T17:59:34.268Z,18.50
2022-10-02T18:02:19.935Z,18.50
2022-10-02T18:05:23.407Z,18.40
2022-10-02T18:07:59.763Z,18.40
2022-10-02T18:11:07.159Z,18.40
2022-10-02T18:14:05.720Z,18.40
2022-10-02T18:17:09.719Z,18.30
2022-10-02T18:20:03.971Z,18.30
2022-10-02T18:23:05.928Z,18.20
2022-10-02T18:25:42.816Z,18.20
2022-10-02T18:28:33.957Z,18.20
2022-10-02T18:31:11.059Z,18.10
2022-10-02T18:33:46.853Z,18.10
2022-10-02T18:36:35.720Z,18.10
2022-10-02T18:39:27.362Z,18.00
2022-10-02T18:42:20.798Z,18.00
2022-10-02T18:45:27.060Z,18.00
2022-10-02T18:48:20.105Z,17.90
2022-10-02T18:51:31.218Z,17.90
2022-10-02T18:54:24.695Z,17.80
2022-10-02T18:57:09.255Z,17.80
2022-10-02T18:59:55.189Z,17.80
2022-10-02T19:02:30.087Z,17.80
2022-10-02T19:05:16.663Z,17.70
2022-10-02T19:08:18.393Z,17.70
2022-10-02T19:10:46.790Z,17.70
2022-10-02T19:13:29.013Z,17.70
2022-10-02T19:16:01.288Z,17.60
2022-10-02T19:18:29.670Z,17.60
2022-10-02T19:21:13.332Z,17.60
2022-10-02T19:23:55.717Z,17.50
2022-10-02T19:26:34.869Z,17.50
2022-10-02T19:29:01.605Z,17.50
2022-10-02T19:31:30.475Z,17.50
2022-10-02T19:34:02.292Z,17.40
2022-10-02T19:36:33.608Z,17.40
2022-10-02T19:39:07.648Z,17.40
2022-10-02T19:41:42.340Z,17.40
2022-10-02T19:44:26.063Z,17.30
2022-10-02T19:46:56.582Z,17.30
2022-10-02T19:49:39.299Z,17.30
2022-10-02T19:52:33.138Z,17.20
2022-10-02T19:55:04.297Z,17.30
2022-10-02T19:57:38.142Z,17.20
2022-10-02T20:00:08.083Z,17.20
2022-10-02T20:02:42.410Z,17.10
2022-10-02T20:05:35.034Z,17.10
2022-10-02T20:08:07.277Z,17.10
2022-10-02T20:10:41.379Z,17.10
2022-10-02T20:13:42.096Z,17.10
2022-10-02T20:16:44.582Z,17.00
2022-10-02T20:19:25.162Z,17.00
2022-10-02T20:22:11.902Z,17.00
2022-10-02T20:25:03.758Z,17.00
2022-10-02T20:27:53.062Z,16.90
2022-10-02T20:30:22.377Z,16.90
2022-10-02T20:32:59.571Z,16.90
2022-10-02T20:35:37.133Z,16.90
2022-10-02T20:38:14.708Z,16.80
2022-10-02T20:40:45.573Z,16.80
2022-10-02T20:43:40.424Z,16.80
2022-10-02T20:46:37.753Z,16.80
2022-10-02T20:49:14.959Z,16.80
2022-10-02T20:52:19.834Z,16.70
2022-10-02T20:55:18.038Z,16.70
2022-10-02T20:58:00.771Z,16.70
2022-10-02T21:00:42.799Z,16.70
2022-10-02T21:03:28.490Z,16.60
2022-10-02T21:06:14.514Z,16.60
2022-10-02T21:09:25.512Z,16.60
2022-10-02T21:12:28.949Z,16.60
2022-10-02T21:15:05.313Z,16.50
2022-10-02T21:17:50.635Z,16.50
2022-10-02T21:20:52.503Z,16.50
2022-10-02T21:24:05.636Z,16.50
2022-10-02T21:26:58.755Z,16.50
2022-10-02T21:29:41.603Z,16.50
2022-10-02T21:32:29.268Z,16.40
2022-10-02T21:35:06.785Z,16.40
2022-10-02T21:38:00.058Z,16.40
2022-10-02T21:40:57.711Z,16.40
2022-10-02T21:43:39.663Z,16.30
2022-10-02T21:46:41.231Z,16.30
2022-10-02T21:49:27.487Z,16.30
2022-10-02T21:52:15.906Z,16.30
2022-10-02T21:55:20.236Z,16.20
2022-10-02T21:58:07.979Z,16.20
2022-10-02T22:01:04.323Z,16.20
2022-10-02T22:03:34.050Z,16.20
2022-10-02T22:06:25.775Z,16.10
2022-10-02T22:09:03.753Z,16.10
2022-10-02T22:11:38.430Z,16.10
2022-10-02T22:14:13.791Z,16.10
2022-10-02T22:17:18.458Z,16.10
2022-10-02T22:20:15.574Z,16.00
2022-10-02T22:22:42.207Z,16.00
2022-10-02T22:25:27.123Z,16.00
2022-10-02T22:28:12.243Z,16.00
2022-10-02T22:31:05.520Z,16.00
2022-10-02T22:33:52.674Z,15.90
2022-10-02T22:36:31.938Z,15.90
2022-10-02T22:39:20.373Z,15.90
2022-10-02T22:42:10.170Z,15.90
2022-10-02T22:44:42.775Z,15.90
2022-10-02T22:47:22.510Z,15.80
2022-10-02T22:50:08.538Z,15.90
2022-10-02T22:52:52.903Z,15.80
2022-10-02T22:55:29.760Z,15.80
2022-10-02T22:58:14.550Z,15.80
2022-10-02T23:01:06.177Z,15.80
2022-10-02T23:04:01.485Z,15.80
2022-10-02T23:06:48.131Z,15.80
2022-10-02T23:09:25.989Z,15.80
2022-10-02T23:12:18.061Z,15.80
2022-10-02T23:15:10.810Z,15.70
2022-10-02T23:17:44.856Z,15.70
2022-10-02T23:20:11.981Z,15.70
2022-10-02T23:22:53.977Z,15.70
2022-10-02T23:25:26.700Z,15.70
2022-10-02T23:28:23.678Z,15.70
2022-10-02T23:31:12.870Z,15.60
2022-10-02T23:33:56.105Z,15.60
2022-10-02T23:36:26.212Z,15.60
2022-10-02T23:39:26.261Z,15.60
2022-10-02T23:41:56.381Z,15.60
2022-10-02T23:44:28.458Z,15.60
2022-10-02T23:47:25.269Z,15.60
2022-10-02T23:49:54.133Z,15.70
2022-10-02T23:52:29.530Z,15.60
2022-10-02T23:55:24.074Z,15.60
2022-10-02T23:58:20.093Z,15.50
